createdAt,value
2022-09-30T00:01:34.310Z,97845.66
2022-09-30T00:11:59.033Z,97836.70
2022-09-30T00:22:23.620Z,97835.48
2022-09-30T00:32:48.290Z,97837.48
2022-09-30T00:43:16.875Z,97844.77
2022-09-30T00:53:47.910Z,97850.06
2022-09-30T01:04:15.332Z,97865.92
2022-09-30T01:14:41.200Z,97852.95
2022-09-30T01:25:37.984Z,97844.40
2022-09-30T01:36:20.316Z,97859.27
2022-09-30T01:46:51.693Z,97870.82
2022-09-30T01:57:22.512Z,97869.61
2022-09-30T02:07:51.643Z,97869.39
2022-09-30T02:18:22.052Z,97868.73
2022-09-30T02:28:50.548Z,97874.89
2022-09-30T02:39:21.506Z,97876.04
2022-09-30T02:49:49.570Z,97883.29
2022-09-30T03:00:14.486Z,97881.27
2022-09-30T03:10:40.052Z,97879.77
2022-09-30T03:21:18.385Z,97888.71
2022-09-30T03:31:52.779Z,97889.42
2022-09-30T03:42:23.663Z,97895.05
2022-09-30T03:52:49.388Z,97899.14
2022-09-30T04:03:13.998Z,97904.18
2022-09-30T04:13:38.955Z,97907.91
2022-09-30T04:24:03.856Z,97914.55
2022-09-30T04:34:28.475Z,97914.58
2022-09-30T04:44:53.069Z,97918.73
2022-09-30T04:55:17.901Z,97919.63
2022-09-30T05:05:44.736Z,97924.59
2022-09-30T05:16:10.359Z,97927.78
2022-09-30T05:26:35.036Z,97935.52
2022-09-30T05:36:59.676Z,97945.39
2022-09-30T05:47:24.438Z,97954.08
2022-09-30T05:57:49.937Z,97961.42
2022-09-30T06:08:15.483Z,97967.54
2022-09-30T06:18:41.047Z,97971.90
2022-09-30T06:29:05.755Z,97978.85
2022-09-30T06:39:30.560Z,97990.51
2022-09-30T06:49:58.377Z,97992.40
2022-09-30T07:00:23.963Z,97998.73
2022-09-30T07:10:48.882Z,98001.17
2022-09-30T07:22:19.749Z,98006.11
2022-09-30T07:32:44.408Z,98012.81
2022-09-30T07:43:08.972Z,98016.01
2022-09-30T07:53:33.638Z,98024.37
2022-09-30T08:04:00.366Z,98030.54
2022-09-30T08:14:27.436Z,98037.38
2022-09-30T08:24:52.092Z,98041.84
2022-09-30T08:35:16.963Z,98052.44
2022-09-30T08:45:51.400Z,98057.80
2022-09-30T08:56:23.356Z,98065.45
2022-09-30T09:06:57.342Z,98069.10
2022-09-30T09:17:34.697Z,98073.07
2022-09-30T09:28:00.894Z,98078.17
2022-09-30T09:38:35.280Z,98079.11
2022-09-30T09:49:31.676Z,98082.19
2022-09-30T09:59:58.190Z,98094.82
2022-09-30T10:10:24.549Z,98096.02
2022-09-30T10:20:55.324Z,98109.81
2022-09-30T10:31:24.811Z,98113.55
2022-09-30T10:41:50.696Z,98128.45
2022-09-30T10:52:20.808Z,98137.64
2022-09-30T11:02:54.006Z,98138.80
2022-09-30T11:13:24.883Z,98142.44
2022-09-30T11:23:54.897Z,98146.25
2022-09-30T11:34:36.166Z,98157.81
2022-09-30T11:45:09.581Z,98168.71
2022-09-30T11:55:51.661Z,98171.48
2022-09-30T12:06:23.657Z,98174.88
2022-09-30T12:16:50.753Z,98184.20
2022-09-30T12:27:21.249Z,98191.36
2022-09-30T12:38:06.633Z,98195.77
2022-09-30T12:48:37.265Z,98209.00
2022-09-30T12:59:03.327Z,98219.11
2022-09-30T13:09:33.899Z,98229.12
2022-09-30T13:19:58.558Z,98236.00
2022-09-30T13:30:37.846Z,98237.88
2022-09-30T13:41:08.999Z,98237.30
2022-09-30T13:51:35.035Z,98241.15
2022-09-30T14:02:26.613Z,98246.84
2022-09-30T14:13:05.862Z,98248.65
2022-09-30T14:23:30.526Z,98244.03
2022-09-30T14:33:56.076Z,98250.68
2022-09-30T14:44:21.783Z,98255.02
2022-09-30T14:54:48.383Z,98260.02
2022-09-30T15:05:15.517Z,98273.85
2022-09-30T15:15:40.543Z,98287.19
2022-09-30T15:26:06.576Z,98300.25
2022-09-30T15:36:31.678Z,98288.22
2022-09-30T15:47:05.518Z,98304.63
2022-09-30T15:57:53.807Z,98313.11
2022-09-30T16:08:23.369Z,98322.71
2022-09-30T16:18:48.822Z,98328.02
2022-09-30T16:29:17.003Z,98345.03
2022-09-30T16:39:42.579Z,98350.04
2022-09-30T16:50:19.008Z,98364.19
2022-09-30T17:00:44.794Z,98356.41
2022-09-30T17:11:10.535Z,98351.91
2022-09-30T17:21:35.372Z,98368.46
2022-09-30T17:32:00.527Z,98375.34
2022-09-30T17:42:43.589Z,98393.11
2022-09-30T17:53:08.541Z,98411.30
2022-09-30T18:03:33.236Z,98405.55
2022-09-30T18:13:59.534Z,98418.23
2022-09-30T18:24:38.906Z,98433.83
2022-09-30T18:35:06.582Z,98448.30
2022-09-30T18:45:36.421Z,98451.31
2022-09-30T18:56:01.831Z,98453.88
2022-09-30T19:06:26.965Z,98452.16
2022-09-30T19:16:52.119Z,98462.86
2022-09-30T19:27:17.103Z,98456.02
2022-09-30T19:37:52.251Z,98447.16
2022-09-30T19:48:22.235Z,98453.21
2022-09-30T19:58:48.840Z,98455.69
2022-09-30T20:09:13.853Z,98456.80
2022-09-30T20:19:38.698Z,98468.58
2022-09-30T20:30:03.751Z,98473.94
2022-09-30T20:40:28.536Z,98459.20
2022-09-30T20:50:53.207Z,98452.66
2022-09-30T21:01:20.103Z,98454.67
2022-09-30T21:11:44.818Z,98453.50
2022-09-30T21:22:10.060Z,98446.20
2022-09-30T21:32:34.744Z,98440.03
2022-09-30T21:42:59.932Z,98446.23
2022-09-30T21:53:26.836Z,98456.94
2022-09-30T22:03:51.489Z,98459.02
2022-09-30T22:14:16.422Z,98451.36
2022-09-30T22:24:41.042Z,98456.28
2022-09-30T22:35:25.295Z,98444.91
2022-09-30T22:45:49.960Z,98440.30
2022-09-30T22:56:14.674Z,98448.61
2022-09-30T23:06:39.236Z,98456.19
2022-09-30T23:17:03.868Z,98453.67
2022-09-30T23:27:28.642Z,98450.93
2022-09-30T23:37:53.298Z,98446.77
2022-09-30T23:48:18.019Z,98448.85
2022-09-30T23:58:43.361Z,98442.46
